Time;durP1;ratioP1;P1;durP2;ratioP2;P2;SDS_P1;SDS_P2;PMS_P1;PMS_P2;Temp;Humidity;BMP_temperature;BMP_pressure;BME280_temperature;BME280_humidity;BME280_pressure;Samples;Min_cycle;Max_cycle;Signal;HPM_P1;HPM_P2
2021/03/04 00:00:37;;;;;;;94.38;53.25;;;9.40;84.20;;;;;;5053720;28;20025;-74
2021/03/04 00:03:04;;;;;;;99.93;55.35;;;9.40;84.10;;;;;;5053807;28;20032;-74
2021/03/04 00:05:30;;;;;;;95.63;56.75;;;9.40;84.10;;;;;;5054473;28;20060;-74
2021/03/04 00:07:56;;;;;;;96.82;54.60;;;9.40;84.00;;;;;;5039671;28;20029;-74
2021/03/04 00:10:23;;;;;;;109.50;61.70;;;9.40;84.00;;;;;;5054926;28;20040;-74
2021/03/04 00:12:49;;;;;;;114.10;62.50;;;9.30;84.20;;;;;;5054762;28;20029;-74
2021/03/04 00:15:18;;;;;;;102.13;56.63;;;9.30;84.40;;;;;;5053345;28;20025;-74
2021/03/04 00:17:44;;;;;;;104.63;55.83;;;9.20;84.60;;;;;;5054620;28;20075;-74
2021/03/04 00:20:13;;;;;;;102.50;56.80;;;9.20;84.70;;;;;;5054699;28;20371;-74
2021/03/04 00:22:39;;;;;;;93.45;54.17;;;9.20;84.80;;;;;;5054562;28;20017;-74
2021/03/04 00:25:07;;;;;;;91.43;53.45;;;9.20;84.70;;;;;;5052997;28;20044;-74
2021/03/04 00:27:32;;;;;;;96.85;55.47;;;9.30;84.70;;;;;;5036568;28;20039;-74
2021/03/04 00:29:58;;;;;;;91.78;50.95;;;9.30;84.60;;;;;;5053264;28;20112;-74
2021/03/04 00:32:24;;;;;;;95.90;52.58;;;9.20;84.40;;;;;;5054524;28;20114;-74
2021/03/04 00:34:50;;;;;;;95.10;53.15;;;9.20;84.40;;;;;;5054045;28;20043;-74
2021/03/04 00:37:16;;;;;;;94.65;52.92;;;9.20;84.30;;;;;;5052667;28;20537;-74
2021/03/04 00:39:41;;;;;;;88.68;49.90;;;9.20;84.40;;;;;;5053022;28;20036;-74
2021/03/04 00:42:07;;;;;;;93.85;51.50;;;9.10;84.60;;;;;;5054188;28;20413;-74
2021/03/04 00:44:33;;;;;;;93.20;52.17;;;9.10;84.80;;;;;;5052634;28;20033;-74
2021/03/04 00:46:59;;;;;;;114.65;57.20;;;9.00;84.80;;;;;;5053955;28;20032;-74
2021/03/04 00:49:24;;;;;;;98.15;55.15;;;9.00;85.10;;;;;;5052522;28;20029;-74
2021/03/04 00:51:50;;;;;;;109.53;59.97;;;9.00;85.30;;;;;;5036446;28;20031;-74
2021/03/04 00:54:16;;;;;;;103.47;55.88;;;8.90;85.40;;;;;;5035844;28;20095;-74
2021/03/04 00:56:41;;;;;;;99.05;53.13;;;8.80;85.60;;;;;;5035834;28;20124;-74
2021/03/04 00:59:07;;;;;;;92.22;51.75;;;8.80;85.70;;;;;;5053637;28;20028;-74
2021/03/04 01:01:32;;;;;;;103.15;53.63;;;8.80;85.90;;;;;;5036049;28;20029;-74
2021/03/04 01:03:58;;;;;;;96.82;52.20;;;8.80;86.50;;;;;;5051621;28;20041;-74
2021/03/04 01:06:24;;;;;;;89.50;51.35;;;8.80;85.80;;;;;;5052553;28;20044;-74
2021/03/04 01:08:49;;;;;;;90.82;50.83;;;8.80;85.50;;;;;;5052849;28;20025;-74
2021/03/04 01:11:15;;;;;;;99.10;53.47;;;8.80;85.40;;;;;;5019612;28;20029;-74
2021/03/04 01:13:42;;;;;;;89.95;51.80;;;8.80;85.40;;;;;;5052517;28;20648;-74
2021/03/04 01:16:08;;;;;;;87.93;49.42;;;8.70;85.40;;;;;;5053122;28;20040;-74
2021/03/04 01:18:34;;;;;;;91.05;51.17;;;8.80;85.30;;;;;;5052565;28;20592;-74
2021/03/04 01:21:00;;;;;;;102.32;54.30;;;8.80;85.20;;;;;;5051935;28;20119;-74
2021/03/04 01:23:26;;;;;;;96.68;51.53;;;8.70;85.20;;;;;;5053617;28;20100;-74
2021/03/04 01:25:52;;;;;;;93.18;52.50;;;8.60;85.40;;;;;;5040135;28;20398;-74
2021/03/04 01:28:17;;;;;;;102.38;54.40;;;8.50;85.70;;;;;;5053554;28;20025;-73
2021/03/04 01:30:43;;;;;;;127.05;61.05;;;8.50;85.90;;;;;;5052226;28;20036;-74
2021/03/04 01:33:09;;;;;;;115.63;58.85;;;8.50;86.30;;;;;;5053039;28;20020;-73
2021/03/04 01:35:35;;;;;;;107.15;55.92;;;8.50;86.30;;;;;;5034913;28;20029;-73
2021/03/04 01:38:00;;;;;;;134.73;65.60;;;8.40;86.30;;;;;;5051883;28;20440;-73
2021/03/04 01:40:26;;;;;;;121.90;61.47;;;8.40;86.70;;;;;;5051809;28;20056;-73
2021/03/04 01:42:52;;;;;;;126.35;60.72;;;8.40;86.60;;;;;;5053030;28;20021;-73
2021/03/04 01:45:19;;;;;;;114.82;58.55;;;8.40;86.80;;;;;;5053912;28;20483;-73
2021/03/04 01:47:53;;;;;;;113.57;60.25;;;8.30;87.10;;;;;;5053630;28;20039;-73
2021/03/04 01:50:21;;;;;;;111.57;58.17;;;8.30;87.40;;;;;;5052136;28;20025;-73
2021/03/04 01:52:47;;;;;;;101.40;54.15;;;8.20;87.30;;;;;;5051954;28;20482;-73
2021/03/04 01:55:16;;;;;;;106.65;54.15;;;8.20;87.30;;;;;;5035341;28;20047;-73
2021/03/04 01:57:44;;;;;;;102.18;51.95;;;8.20;87.30;;;;;;5052272;28;20371;-73
2021/03/04 02:00:11;;;;;;;98.90;50.72;;;8.30;87.10;;;;;;5053147;28;20032;-73
2021/03/04 02:02:37;;;;;;;96.93;50.85;;;8.30;86.90;;;;;;5051674;28;20508;-74
2021/03/04 02:05:07;;;;;;;107.53;55.25;;;8.30;86.60;;;;;;5052114;28;20128;-73
2021/03/04 02:07:50;;;;;;;110.20;55.53;;;8.30;86.60;;;;;;5035328;28;20604;-73
2021/03/04 02:10:37;;;;;;;137.95;64.10;;;8.30;86.70;;;;;;5053211;28;20562;-74
2021/03/04 02:13:02;;;;;;;108.43;56.03;;;8.30;86.80;;;;;;5052588;28;20024;-73
2021/03/04 02:15:34;;;;;;;128.10;61.28;;;8.20;87.00;;;;;;5053115;28;20470;-73
2021/03/04 02:18:03;;;;;;;109.70;55.17;;;8.10;87.10;;;;;;5052433;28;20036;-73
2021/03/04 02:20:52;;;;;;;111.85;56.10;;;8.10;87.20;;;;;;5052438;28;20029;-73
2021/03/04 02:23:56;;;;;;;113.22;53.78;;;8.10;87.10;;;;;;5048446;28;20505;-73
2021/03/04 02:27:16;;;;;;;142.30;60.83;;;8.10;87.00;;;;;;5052551;28;20051;-73
2021/03/04 02:29:47;;;;;;;124.72;55.63;;;8.10;86.90;;;;;;4994735;28;20075;-73
2021/03/04 02:32:15;;;;;;;117.07;56.72;;;8.00;86.80;;;;;;5040972;28;20486;-73
2021/03/04 02:34:55;;;;;;;114.75;54.88;;;8.00;86.80;;;;;;5051610;28;20025;-73
2021/03/04 02:37:23;;;;;;;117.53;57.00;;;7.90;86.90;;;;;;5051536;28;20044;-73
2021/03/04 02:39:51;;;;;;;109.05;53.92;;;7.90;86.90;;;;;;5034910;28;20029;-73
2021/03/04 02:42:21;;;;;;;107.70;54.58;;;7.80;87.10;;;;;;5050925;28;20103;-73
2021/03/04 02:44:50;;;;;;;111.70;51.58;;;7.80;87.20;;;;;;5052077;28;20039;-73
2021/03/04 02:47:17;;;;;;;106.43;50.67;;;7.80;87.20;;;;;;5052569;28;20021;-73
2021/03/04 02:49:45;;;;;;;100.10;50.17;;;7.80;87.20;;;;;;5034205;28;20494;-73
2021/03/04 02:52:11;;;;;;;102.45;51.35;;;7.80;87.20;;;;;;5052554;28;20033;-73
2021/03/04 02:54:38;;;;;;;108.82;52.65;;;7.80;87.30;;;;;;5051357;28;20040;-73
2021/03/04 02:57:06;;;;;;;113.10;54.03;;;7.90;87.30;;;;;;5052822;28;20021;-73
2021/03/04 02:59:33;;;;;;;106.75;54.75;;;7.90;87.10;;;;;;5051406;28;20025;-73
2021/03/04 03:02:00;;;;;;;104.10;52.45;;;7.80;87.10;;;;;;5052561;28;20044;-73
2021/03/04 03:04:26;;;;;;;106.13;53.75;;;7.80;87.30;;;;;;5051453;28;20055;-73
2021/03/04 03:06:53;;;;;;;105.88;55.42;;;7.80;87.20;;;;;;5051713;28;20815;-73
2021/03/04 03:09:20;;;;;;;113.03;54.97;;;7.80;87.40;;;;;;5051424;28;20036;-77
2021/03/04 03:11:45;;;;;;;99.93;51.63;;;7.80;87.50;;;;;;5051492;28;20409;-77
2021/03/04 03:14:12;;;;;;;113.57;56.25;;;7.80;87.50;;;;;;5051292;28;20033;-77
2021/03/04 03:16:37;;;;;;;117.97;57.00;;;7.80;87.50;;;;;;5051643;28;20094;-77
2021/03/04 03:19:04;;;;;;;131.85;60.88;;;7.70;87.80;;;;;;5051408;28;20111;-77
2021/03/04 03:21:30;;;;;;;126.00;58.45;;;7.70;88.10;;;;;;5051453;28;20478;-77
2021/03/04 03:23:55;;;;;;;162.88;69.88;;;7.70;88.20;;;;;;5051237;28;20032;-77
2021/03/04 03:26:21;;;;;;;118.47;58.35;;;7.60;88.40;;;;;;5052634;28;20029;-77
2021/03/04 03:28:46;;;;;;;112.38;53.83;;;7.60;88.40;;;;;;5051338;28;20033;-77
2021/03/04 03:31:14;;;;;;;116.05;54.75;;;7.60;88.40;;;;;;5051404;28;20113;-77
2021/03/04 03:33:40;;;;;;;127.28;59.88;;;7.60;88.60;;;;;;5055817;28;20450;-77
2021/03/04 03:36:08;;;;;;;112.22;53.60;;;7.50;88.80;;;;;;5056007;28;20056;-76
2021/03/04 03:38:35;;;;;;;136.52;63.00;;;7.50;88.90;;;;;;5054465;28;20044;-77
2021/03/04 03:41:01;;;;;;;112.95;53.63;;;7.50;88.90;;;;;;5054672;28;20092;-76
2021/03/04 03:43:28;;;;;;;107.65;53.38;;;7.50;88.80;;;;;;5055870;28;20081;-76
2021/03/04 03:45:55;;;;;;;106.70;52.05;;;7.50;88.80;;;;;;5055158;28;20075;-77
2021/03/04 03:48:23;;;;;;;105.80;50.38;;;7.40;88.80;;;;;;5054652;28;20032;-77
2021/03/04 03:50:53;;;;;;;108.43;50.67;;;7.40;88.90;;;;;;5055837;28;20025;-77
2021/03/04 03:53:19;;;;;;;103.88;50.15;;;7.40;89.60;;;;;;5054299;28;20100;-77
2021/03/04 03:55:46;;;;;;;145.40;62.08;;;7.40;88.90;;;;;;5055650;28;20029;-77
2021/03/04 03:58:13;;;;;;;175.98;65.63;;;7.40;89.20;;;;;;5055612;28;20029;-77
2021/03/04 04:00:39;;;;;;;139.38;60.40;;;7.40;89.40;;;;;;5054444;28;20021;-77
2021/03/04 04:03:05;;;;;;;135.13;57.70;;;7.30;89.70;;;;;;5054318;28;20035;-77
2021/03/04 04:05:31;;;;;;;114.55;51.78;;;7.30;89.60;;;;;;5037387;28;20033;-77
2021/03/04 04:07:59;;;;;;;120.60;54.63;;;7.40;89.40;;;;;;5054162;28;20033;-77
2021/03/04 04:10:26;;;;;;;123.35;54.85;;;7.40;89.20;;;;;;5053869;28;20061;-77
2021/03/04 04:12:53;;;;;;;143.43;58.70;;;7.40;89.10;;;;;;5054839;28;20482;-77
2021/03/04 04:15:23;;;;;;;178.15;67.88;;;7.40;89.20;;;;;;5055009;28;20036;-77
2021/03/04 04:17:49;;;;;;;189.02;69.78;;;7.40;89.70;;;;;;5054779;28;20036;-76
2021/03/04 04:20:18;;;;;;;175.27;65.07;;;7.30;90.10;;;;;;5037062;28;20057;-76
2021/03/04 04:22:44;;;;;;;169.93;64.00;;;7.30;90.10;;;;;;5053684;28;20036;-76
2021/03/04 04:25:12;;;;;;;171.90;63.85;;;7.30;89.90;;;;;;5055084;28;20025;-73
2021/03/04 04:27:37;;;;;;;142.40;59.60;;;7.30;89.90;;;;;;5054987;28;20063;-73
2021/03/04 04:30:05;;;;;;;281.88;71.40;;;7.30;89.80;;;;;;5053805;28;20061;-73
2021/03/04 04:32:31;;;;;;;150.80;61.38;;;7.30;89.80;;;;;;5053499;28;20401;-74
2021/03/04 04:34:56;;;;;;;137.98;55.80;;;7.20;89.90;;;;;;5053497;28;20033;-73
2021/03/04 04:37:22;;;;;;;176.27;62.33;;;7.20;90.30;;;;;;5036696;28;20095;-73
2021/03/04 04:39:47;;;;;;;155.68;60.30;;;7.20;90.10;;;;;;5053196;28;20025;-73
2021/03/04 04:42:13;;;;;;;138.98;55.78;;;7.10;90.20;;;;;;5053465;28;20440;-73
2021/03/04 04:44:39;;;;;;;152.65;58.58;;;7.10;90.10;;;;;;5052500;28;20033;-73
2021/03/04 04:47:04;;;;;;;136.80;57.67;;;7.10;90.10;;;;;;5054770;28;20092;-73
2021/03/04 04:49:30;;;;;;;157.20;58.50;;;7.20;90.10;;;;;;5036624;28;20045;-73
2021/03/04 04:51:55;;;;;;;186.68;61.05;;;7.20;90.00;;;;;;5052512;28;20032;-73
2021/03/04 04:54:21;;;;;;;146.07;58.65;;;7.10;90.00;;;;;;5036679;28;20390;-73
2021/03/04 04:56:46;;;;;;;141.00;56.28;;;7.10;90.00;;;;;;5053001;28;20064;-73
2021/03/04 04:59:12;;;;;;;142.18;56.42;;;7.10;90.10;;;;;;5052512;28;20025;-73
2021/03/04 05:01:38;;;;;;;160.75;58.83;;;7.10;90.10;;;;;;5053534;28;20033;-73
2021/03/04 05:04:03;;;;;;;157.27;58.85;;;7.10;90.10;;;;;;5036725;28;20371;-73
2021/03/04 05:06:29;;;;;;;141.90;57.78;;;7.00;90.10;;;;;;5053661;28;20029;-73
2021/03/04 05:08:54;;;;;;;164.63;59.95;;;7.00;90.10;;;;;;5052554;28;20503;-73
2021/03/04 05:11:20;;;;;;;208.27;69.82;;;7.00;90.10;;;;;;5053154;28;20029;-73
2021/03/04 05:13:46;;;;;;;252.05;73.80;;;6.90;90.30;;;;;;5053754;28;20127;-73
2021/03/04 05:16:12;;;;;;;155.63;60.80;;;6.80;90.50;;;;;;5051829;28;20040;-73
2021/03/04 05:18:38;;;;;;;136.80;55.13;;;6.70;90.70;;;;;;5053966;28;20087;-73
2021/03/04 05:21:05;;;;;;;148.52;54.83;;;6.70;90.70;;;;;;5052132;28;20025;-74
2021/03/04 05:23:31;;;;;;;173.25;63.47;;;6.80;90.60;;;;;;5052828;28;20033;-73
2021/03/04 05:25:57;;;;;;;150.75;57.55;;;6.80;90.50;;;;;;5052098;28;20040;-73
2021/03/04 05:28:23;;;;;;;153.85;55.50;;;6.80;90.50;;;;;;5052775;28;20021;-73
2021/03/04 05:30:48;;;;;;;137.43;53.08;;;6.90;90.50;;;;;;5035799;28;20029;-73
2021/03/04 05:33:14;;;;;;;127.18;51.10;;;6.90;90.30;;;;;;5035623;28;20460;-73
2021/03/04 05:35:40;;;;;;;174.57;57.67;;;6.90;90.30;;;;;;5051898;28;20037;-74
2021/03/04 05:38:06;;;;;;;156.07;54.75;;;6.90;90.30;;;;;;5053081;28;20520;-73
2021/03/04 05:40:31;;;;;;;156.77;57.17;;;7.00;90.30;;;;;;5035531;28;20123;-73
2021/03/04 05:42:58;;;;;;;136.95;55.72;;;7.00;90.20;;;;;;5053258;28;20025;-73
2021/03/04 05:45:26;;;;;;;208.25;64.30;;;7.00;90.20;;;;;;5019063;28;20575;-73
2021/03/04 05:47:52;;;;;;;212.80;64.70;;;7.00;90.20;;;;;;5052111;28;20032;-72
2021/03/04 05:50:20;;;;;;;146.60;55.47;;;7.00;90.10;;;;;;5053233;28;20159;-73
2021/03/04 05:53:09;;;;;;;158.55;54.40;;;7.00;90.30;;;;;;5052010;28;20108;-72
2021/03/04 05:55:36;;;;;;;140.18;52.97;;;7.00;90.30;;;;;;5046815;28;20513;-72
2021/03/04 05:58:02;;;;;;;164.13;56.20;;;7.00;90.20;;;;;;5053212;28;20163;-72
2021/03/04 06:00:28;;;;;;;150.82;55.90;;;7.00;90.20;;;;;;5035264;28;20033;-72
2021/03/04 06:02:54;;;;;;;124.10;50.22;;;7.00;90.20;;;;;;5053097;28;20095;-72
2021/03/04 06:05:19;;;;;;;121.53;47.67;;;7.10;90.20;;;;;;5053014;28;20465;-76
2021/03/04 06:07:46;;;;;;;104.90;43.95;;;7.10;90.10;;;;;;5052132;28;20025;-76
2021/03/04 06:10:13;;;;;;;92.90;39.17;;;7.10;90.40;;;;;;5051921;28;20362;-76
2021/03/04 06:12:40;;;;;;;100.65;42.97;;;7.10;90.20;;;;;;5052153;28;20021;-76
2021/03/04 06:15:10;;;;;;;96.70;40.03;;;7.10;90.20;;;;;;5053173;28;20091;-76
2021/03/04 06:17:36;;;;;;;95.45;39.10;;;7.10;90.20;;;;;;5051750;28;20036;-75
2021/03/04 06:20:06;;;;;;;81.13;37.38;;;7.10;90.20;;;;;;5052966;28;20665;-74
2021/03/04 06:22:34;;;;;;;81.45;36.53;;;7.10;90.20;;;;;;5052893;28;20025;-75
2021/03/04 06:25:06;;;;;;;79.43;35.72;;;7.10;90.20;;;;;;5051966;28;20029;-75
2021/03/04 06:27:33;;;;;;;63.72;32.42;;;7.00;90.20;;;;;;5051706;28;20112;-75
2021/03/04 06:30:01;;;;;;;77.53;33.75;;;7.00;90.30;;;;;;5052553;28;20482;-74
2021/03/04 06:32:27;;;;;;;59.92;30.40;;;7.00;90.30;;;;;;5051346;28;20029;-75
2021/03/04 06:35:10;;;;;;;64.53;31.42;;;7.00;90.30;;;;;;5052831;28;20029;-75
2021/03/04 06:37:39;;;;;;;63.35;32.22;;;7.00;90.40;;;;;;5052892;28;20120;-74
2021/03/04 06:40:17;;;;;;;79.97;36.30;;;7.00;90.30;;;;;;5052745;28;20409;-75
2021/03/04 06:42:44;;;;;;;64.15;31.17;;;7.00;90.30;;;;;;5052914;28;20018;-74
2021/03/04 06:45:34;;;;;;;57.40;27.42;;;6.90;90.30;;;;;;5052947;28;20108;-74
2021/03/04 06:48:13;;;;;;;48.58;24.65;;;6.90;90.50;;;;;;5052549;28;20020;-74
2021/03/04 06:50:40;;;;;;;47.03;23.50;;;6.90;90.50;;;;;;5052893;28;20479;-75
2021/03/04 06:53:22;;;;;;;58.38;25.92;;;6.90;90.40;;;;;;5052748;28;20039;-74
2021/03/04 06:55:56;;;;;;;81.28;32.85;;;7.00;90.50;;;;;;5051845;28;20106;-74
2021/03/04 06:58:36;;;;;;;68.45;30.38;;;7.00;90.40;;;;;;5052038;28;20029;-74
2021/03/04 07:01:11;;;;;;;80.90;35.67;;;7.00;90.40;;;;;;5051970;28;20414;-74
2021/03/04 07:03:51;;;;;;;68.63;32.40;;;7.00;90.40;;;;;;5052511;28;20416;-74
2021/03/04 07:06:18;;;;;;;64.75;30.85;;;6.90;90.60;;;;;;5051197;28;20040;-75
2021/03/04 07:08:45;;;;;;;52.17;26.50;;;6.90;90.60;;;;;;5056197;28;20033;-74
2021/03/04 07:11:13;;;;;;;52.90;28.90;;;6.90;90.60;;;;;;5056270;28;20029;-74
2021/03/04 07:13:40;;;;;;;47.35;24.90;;;6.90;90.60;;;;;;5052426;28;20044;-74
2021/03/04 07:16:12;;;;;;;47.03;24.70;;;6.90;90.60;;;;;;5056471;28;20029;-75
2021/03/04 07:18:40;;;;;;;48.47;25.40;;;7.00;90.50;;;;;;5075101;28;20052;-74
2021/03/04 07:21:09;;;;;;;44.50;25.70;;;6.90;90.30;;;;;;5076571;28;20029;-74
2021/03/04 07:23:39;;;;;;;52.85;27.27;;;6.90;90.40;;;;;;5059547;28;20531;-74
2021/03/04 07:26:06;;;;;;;44.85;25.73;;;6.90;90.40;;;;;;5055830;28;20029;-74
2021/03/04 07:28:32;;;;;;;45.45;25.50;;;6.90;90.40;;;;;;5056249;28;20025;-75
2021/03/04 07:31:00;;;;;;;41.05;23.00;;;6.90;90.50;;;;;;5038018;28;20120;-77
2021/03/04 07:33:28;;;;;;;37.90;21.67;;;6.90;90.70;;;;;;5054845;28;20066;-75
2021/03/04 07:35:54;;;;;;;40.70;22.73;;;6.80;90.40;;;;;;5055397;28;20025;-75
2021/03/04 07:38:27;;;;;;;44.15;22.85;;;6.80;90.40;;;;;;5054048;28;20113;-74
2021/03/04 07:41:11;;;;;;;35.70;21.00;;;6.80;90.50;;;;;;5053895;28;20033;-75
2021/03/04 07:43:57;;;;;;;32.95;20.02;;;6.80;90.60;;;;;;5054897;28;20033;-75
2021/03/04 07:46:30;;;;;;;29.45;18.48;;;6.80;90.60;;;;;;5054087;28;20025;-75
2021/03/04 07:48:56;;;;;;;30.92;19.50;;;6.80;90.60;;;;;;5056762;28;21610;-74
2021/03/04 07:51:22;;;;;;;37.08;21.48;;;6.70;90.60;;;;;;5075714;28;20028;-75
2021/03/04 07:53:48;;;;;;;39.40;21.95;;;6.70;90.60;;;;;;5075215;28;20041;-75
2021/03/04 07:56:27;;;;;;;40.28;20.65;;;6.70;90.60;;;;;;5075639;28;20104;-75
2021/03/04 07:58:55;;;;;;;38.45;21.35;;;6.70;90.60;;;;;;5055508;28;20108;-75
2021/03/04 08:01:21;;;;;;;37.20;22.20;;;6.70;90.60;;;;;;5055596;28;20107;-74
2021/03/04 08:03:51;;;;;;;31.15;18.60;;;6.80;90.70;;;;;;5055184;28;20393;-75
2021/03/04 08:06:17;;;;;;;26.17;16.60;;;6.80;90.90;;;;;;5082285;28;20547;-74
2021/03/04 08:08:46;;;;;;;24.73;15.75;;;6.70;90.80;;;;;;5036099;28;20029;-75
2021/03/04 08:11:26;;;;;;;24.42;15.15;;;6.70;90.80;;;;;;5054086;28;20057;-74
2021/03/04 08:13:51;;;;;;;21.88;13.70;;;6.70;90.80;;;;;;5054745;28;20644;-75
2021/03/04 08:16:18;;;;;;;21.48;14.40;;;6.70;90.70;;;;;;5054944;28;20036;-74
2021/03/04 08:18:58;;;;;;;27.92;15.18;;;6.80;90.70;;;;;;5036228;28;20029;-74
2021/03/04 08:21:24;;;;;;;23.40;14.93;;;6.80;90.70;;;;;;5054803;28;20053;-74
2021/03/04 08:23:51;;;;;;;20.30;13.43;;;6.80;90.70;;;;;;5055031;28;20017;-74
2021/03/04 08:26:21;;;;;;;20.55;13.07;;;6.80;90.70;;;;;;5055291;28;20021;-74
2021/03/04 08:28:47;;;;;;;17.45;13.15;;;6.80;90.70;;;;;;5055046;28;20021;-74
2021/03/04 08:31:14;;;;;;;24.13;14.00;;;6.80;90.60;;;;;;5053958;28;20479;-74
2021/03/04 08:33:39;;;;;;;17.85;12.63;;;6.80;90.60;;;;;;5053722;28;20040;-74
2021/03/04 08:36:06;;;;;;;16.27;11.68;;;6.80;90.60;;;;;;5053717;28;20020;-74
2021/03/04 08:38:40;;;;;;;18.08;11.88;;;6.80;90.60;;;;;;5054917;28;20043;-74
2021/03/04 08:41:06;;;;;;;21.08;14.25;;;6.80;90.60;;;;;;5053667;28;20111;-74
2021/03/04 08:43:32;;;;;;;23.52;13.18;;;6.80;90.60;;;;;;5054897;28;20108;-74
2021/03/04 08:46:03;;;;;;;19.75;13.68;;;6.80;90.60;;;;;;5053743;28;20045;-74
2021/03/04 08:48:29;;;;;;;22.65;14.68;;;6.80;90.60;;;;;;5053387;28;20046;-74
2021/03/04 08:51:03;;;;;;;23.77;15.50;;;6.70;90.60;;;;;;5053419;28;20090;-74
2021/03/04 08:53:33;;;;;;;23.35;16.15;;;6.70;90.60;;;;;;5054325;28;20104;-74
2021/03/04 08:56:04;;;;;;;27.75;18.13;;;6.70;90.60;;;;;;5053329;28;20044;-74
2021/03/04 08:58:32;;;;;;;34.58;20.45;;;6.70;90.60;;;;;;5054236;28;20025;-74
2021/03/04 09:01:04;;;;;;;31.30;20.48;;;6.60;90.60;;;;;;5036468;28;20094;-74
2021/03/04 09:03:39;;;;;;;37.67;22.58;;;6.60;90.50;;;;;;5053641;28;20033;-73
2021/03/04 09:06:13;;;;;;;34.10;20.98;;;6.60;90.60;;;;;;5054141;28;20025;-72
2021/03/04 09:08:43;;;;;;;38.60;22.67;;;6.60;90.50;;;;;;5052946;28;20017;-72
2021/03/04 09:11:35;;;;;;;33.25;20.40;;;6.50;90.50;;;;;;5052212;28;20021;-72
2021/03/04 09:14:07;;;;;;;34.03;21.38;;;6.60;90.70;;;;;;5053054;28;20122;-72
2021/03/04 09:16:49;;;;;;;35.25;20.83;;;6.60;90.70;;;;;;5053564;28;20389;-72
2021/03/04 09:19:33;;;;;;;39.83;21.65;;;6.60;90.70;;;;;;5035386;28;20029;-72
2021/03/04 09:22:10;;;;;;;34.63;19.80;;;6.60;90.70;;;;;;5051872;28;20071;-72
2021/03/04 09:24:38;;;;;;;31.48;20.33;;;6.60;90.90;;;;;;5053576;28;20029;-72
2021/03/04 09:27:08;;;;;;;37.28;22.25;;;6.60;91.00;;;;;;5035263;28;20021;-72
2021/03/04 09:29:39;;;;;;;31.08;19.75;;;6.60;90.80;;;;;;5051227;28;20055;-72
2021/03/04 09:32:04;;;;;;;36.85;21.60;;;6.60;90.80;;;;;;5053512;28;20025;-73
2021/03/04 09:34:32;;;;;;;33.47;19.85;;;6.60;90.80;;;;;;5052684;28;20044;-76
2021/03/04 09:37:07;;;;;;;23.48;14.95;;;6.60;90.80;;;;;;5051953;28;21280;-72
2021/03/04 09:39:42;;;;;;;20.33;12.68;;;6.60;90.80;;;;;;5052031;28;20121;-72
2021/03/04 09:42:09;;;;;;;14.70;10.15;;;6.60;90.60;;;;;;5053443;28;20021;-72
2021/03/04 09:44:50;;;;;;;16.40;10.00;;;6.50;90.50;;;;;;5052021;28;20489;-72
2021/03/04 09:47:20;;;;;;;14.02;9.75;;;6.50;90.60;;;;;;5051968;28;20035;-72
2021/03/04 09:49:46;;;;;;;14.93;9.48;;;6.40;90.60;;;;;;5035599;28;20044;-72
2021/03/04 09:52:22;;;;;;;14.73;9.48;;;6.40;90.50;;;;;;5035617;28;20037;-72
2021/03/04 09:54:49;;;;;;;18.23;10.63;;;6.40;90.60;;;;;;5053391;28;20485;-72
2021/03/04 09:57:21;;;;;;;13.90;9.23;;;6.40;90.60;;;;;;5053378;28;20059;-72
2021/03/04 09:59:52;;;;;;;18.00;10.85;;;6.40;90.60;;;;;;5052069;28;20079;-72
2021/03/04 10:02:19;;;;;;;15.25;10.02;;;6.40;90.60;;;;;;5053632;28;20021;-72
2021/03/04 10:05:03;;;;;;;19.65;11.85;;;6.40;90.60;;;;;;5052160;28;20060;-72
2021/03/04 10:07:31;;;;;;;44.58;22.85;;;6.50;90.60;;;;;;5053255;28;20539;-72
2021/03/04 10:09:57;;;;;;;73.18;38.22;;;6.50;90.60;;;;;;5053000;28;20037;-72
2021/03/04 10:12:24;;;;;;;42.75;24.42;;;6.40;90.50;;;;;;5052004;28;20032;-72
2021/03/04 10:14:51;;;;;;;47.22;23.10;;;6.40;90.50;;;;;;5052008;28;20107;-72
2021/03/04 10:17:17;;;;;;;87.00;42.88;;;6.40;90.50;;;;;;5053291;28;20377;-72
2021/03/04 10:19:43;;;;;;;98.07;43.15;;;6.40;90.60;;;;;;5053209;28;20029;-73
2021/03/04 10:22:09;;;;;;;38.28;18.77;;;6.40;90.50;;;;;;5051697;28;20493;-73
2021/03/04 10:24:35;;;;;;;23.65;13.95;;;6.30;90.40;;;;;;5035365;28;20086;-72
2021/03/04 10:27:06;;;;;;;29.35;16.85;;;6.30;90.50;;;;;;5051530;28;20077;-72
2021/03/04 10:29:33;;;;;;;26.80;14.98;;;6.30;90.70;;;;;;5052157;28;20021;-72
2021/03/04 10:31:59;;;;;;;23.83;13.13;;;6.30;90.70;;;;;;5052069;28;20029;-72
2021/03/04 10:34:25;;;;;;;21.30;12.50;;;6.30;90.80;;;;;;5035064;28;20674;-73
2021/03/04 10:36:51;;;;;;;18.77;11.27;;;6.20;91.00;;;;;;5052908;28;20037;-72
2021/03/04 10:39:21;;;;;;;23.73;12.20;;;6.20;91.00;;;;;;5051568;28;20033;-72
2021/03/04 10:41:47;;;;;;;22.90;12.55;;;6.20;91.00;;;;;;5052775;28;20112;-72
2021/03/04 10:44:13;;;;;;;22.13;12.13;;;6.30;90.90;;;;;;5057104;28;20159;-72
2021/03/04 10:46:40;;;;;;;20.02;11.32;;;6.30;90.90;;;;;;5056696;28;20033;-73
2021/03/04 10:49:08;;;;;;;22.88;12.32;;;6.30;90.90;;;;;;5055660;28;20111;-72
2021/03/04 10:51:34;;;;;;;18.08;10.70;;;6.30;90.80;;;;;;5055812;28;20029;-72
2021/03/04 10:54:00;;;;;;;16.10;10.48;;;6.30;90.90;;;;;;5039103;28;20128;-73
2021/03/04 10:56:26;;;;;;;20.75;10.90;;;6.30;91.20;;;;;;5055755;28;20108;-78
2021/03/04 10:58:52;;;;;;;40.17;19.70;;;6.30;90.90;;;;;;5055812;28;20537;-77
2021/03/04 11:01:17;;;;;;;23.27;12.50;;;6.40;90.80;;;;;;5039204;28;20032;-77
2021/03/04 11:03:43;;;;;;;17.73;9.90;;;6.40;90.70;;;;;;5056877;28;20022;-77
2021/03/04 11:06:10;;;;;;;22.50;11.15;;;6.40;90.60;;;;;;5055547;28;20029;-77
2021/03/04 11:08:36;;;;;;;20.08;10.95;;;6.40;90.60;;;;;;5056829;28;20079;-76
2021/03/04 11:11:02;;;;;;;17.88;10.48;;;6.40;90.70;;;;;;5057151;28;20029;-76
2021/03/04 11:13:28;;;;;;;17.10;10.45;;;6.40;90.70;;;;;;5038884;28;20037;-77
2021/03/04 11:15:53;;;;;;;19.92;10.95;;;6.40;90.80;;;;;;5055441;28;20033;-77
2021/03/04 11:18:19;;;;;;;15.15;9.43;;;6.40;90.70;;;;;;5055367;28;20025;-77
2021/03/04 11:20:45;;;;;;;17.70;9.45;;;6.40;90.60;;;;;;5056632;28;20114;-78
2021/03/04 11:23:10;;;;;;;14.73;9.30;;;6.50;90.60;;;;;;5056566;28;20082;-77
2021/03/04 11:25:38;;;;;;;14.93;9.35;;;6.50;90.60;;;;;;5055276;28;20036;-77
2021/03/04 11:28:06;;;;;;;18.73;10.18;;;6.50;90.50;;;;;;5053906;28;20017;-76
2021/03/04 11:30:32;;;;;;;15.95;8.82;;;6.50;90.50;;;;;;5037865;28;20124;-75
2021/03/04 11:32:58;;;;;;;20.95;10.07;;;6.50;90.40;;;;;;5054246;28;20501;-75
2021/03/04 11:35:27;;;;;;;14.30;8.25;;;6.50;90.50;;;;;;5055433;28;20044;-75
2021/03/04 11:37:54;;;;;;;14.43;8.07;;;6.40;90.50;;;;;;5055331;28;20500;-75
2021/03/04 11:40:20;;;;;;;14.13;7.90;;;6.50;90.50;;;;;;5053908;28;20466;-75
2021/03/04 11:42:46;;;;;;;15.60;8.55;;;6.50;90.40;;;;;;5038052;28;20040;-75
2021/03/04 11:45:12;;;;;;;15.63;9.07;;;6.40;90.30;;;;;;5054310;28;20061;-75
2021/03/04 11:47:37;;;;;;;16.70;9.05;;;6.40;90.20;;;;;;5055119;28;20033;-75
2021/03/04 11:50:04;;;;;;;17.35;9.48;;;6.40;90.30;;;;;;5037249;28;20035;-75
2021/03/04 11:52:29;;;;;;;14.82;8.93;;;6.40;90.30;;;;;;5053605;28;20040;-75
2021/03/04 11:54:55;;;;;;;17.05;9.43;;;6.40;90.30;;;;;;5054608;28;20037;-75
2021/03/04 11:57:22;;;;;;;18.88;9.95;;;6.40;90.20;;;;;;5055729;28;20547;-75
2021/03/04 11:59:47;;;;;;;17.67;9.77;;;6.40;90.20;;;;;;5054733;28;20021;-75
2021/03/04 12:02:13;;;;;;;19.42;10.43;;;6.40;90.20;;;;;;5054313;28;20541;-75
2021/03/04 12:04:39;;;;;;;20.95;9.35;;;6.40;90.30;;;;;;5054818;28;20104;-75
2021/03/04 12:07:04;;;;;;;25.33;10.70;;;6.40;90.20;;;;;;5057693;28;20362;-75
2021/03/04 12:09:30;;;;;;;30.13;13.73;;;6.40;90.30;;;;;;5067144;28;20060;-77
2021/03/04 12:11:56;;;;;;;35.17;13.77;;;6.40;90.30;;;;;;5053477;28;20056;-76
2021/03/04 12:14:22;;;;;;;26.30;12.23;;;6.40;90.40;;;;;;5052906;28;21749;-76
2021/03/04 12:16:48;;;;;;;30.35;13.63;;;6.40;90.50;;;;;;5053208;28;20032;-83
2021/03/04 12:19:14;;;;;;;29.65;13.52;;;6.40;90.60;;;;;;5035994;28;20033;-85
2021/03/04 12:21:41;;;;;;;32.53;14.25;;;6.40;90.70;;;;;;5053256;28;20583;-83
2021/03/04 12:24:07;;;;;;;35.15;14.77;;;6.30;90.70;;;;;;5052058;28;20473;-79
2021/03/04 12:26:33;;;;;;;43.08;16.50;;;6.40;90.70;;;;;;5052202;28;20026;-78
2021/03/04 12:28:59;;;;;;;35.00;16.30;;;6.40;90.70;;;;;;5034386;28;20048;-79
2021/03/04 12:31:24;;;;;;;47.65;19.73;;;6.40;90.70;;;;;;5051627;28;20042;-83
2021/03/04 12:33:50;;;;;;;47.05;18.52;;;6.40;90.80;;;;;;5051594;28;20068;-81
2021/03/04 12:36:15;;;;;;;58.97;21.25;;;6.40;90.80;;;;;;5051956;28;20112;-81
2021/03/04 12:38:41;;;;;;;57.03;21.75;;;6.40;90.70;;;;;;5052690;28;20041;-82